createdAt,value
2022-07-26T05:28:57.037Z,20.81
2022-07-26T05:34:01.177Z,20.94
2022-07-26T05:39:05.644Z,21.11
2022-07-26T05:44:11.482Z,21.40
2022-07-26T05:49:17.029Z,21.63
2022-07-26T05:54:25.537Z,21.92
2022-07-26T05:59:31.259Z,22.15
2022-07-26T06:04:36.140Z,22.28
2022-07-26T06:09:40.243Z,22.07
2022-07-26T06:14:46.069Z,22.13
2022-07-26T06:19:51.030Z,22.19
2022-07-26T06:24:55.013Z,22.08
2022-07-26T06:30:00.411Z,22.38
2022-07-26T06:35:04.851Z,22.88
2022-07-26T06:40:10.905Z,23.51
2022-07-26T06:45:16.959Z,25.06
2022-07-26T06:50:25.759Z,24.93
2022-07-26T06:55:29.791Z,24.36
2022-07-26T07:00:35.535Z,25.66
2022-07-26T07:05:39.484Z,28.24
2022-07-26T07:10:43.646Z,29.61
2022-07-26T07:15:49.622Z,27.33
2022-07-26T07:20:53.656Z,25.09
2022-07-26T07:25:57.879Z,25.46
2022-07-26T07:31:03.769Z,25.71
2022-07-26T07:36:08.627Z,25.31
2022-07-26T07:41:12.741Z,24.57
2022-07-26T07:46:18.207Z,23.43
2022-07-26T07:51:22.188Z,25.38
2022-07-26T07:56:26.520Z,28.14
2022-07-26T08:01:39.554Z,30.03
2022-07-26T08:06:47.702Z,27.65
2022-07-26T08:11:55.217Z,26.60
2022-07-26T08:17:00.959Z,28.46
2022-07-26T08:22:05.920Z,30.21
2022-07-26T08:27:10.270Z,30.89
2022-07-26T08:32:16.115Z,29.19
2022-07-26T08:37:20.425Z,30.24
2022-07-26T08:42:25.116Z,30.44
2022-07-26T08:47:35.384Z,30.30
2022-07-26T08:52:43.408Z,31.37
2022-07-26T08:57:47.843Z,32.38
2022-07-26T09:02:54.896Z,33.40
2022-07-26T09:07:59.988Z,32.14
2022-07-26T09:13:04.160Z,32.72
2022-07-26T09:18:27.028Z,32.44
2022-07-26T09:23:41.164Z,31.67
2022-07-26T09:28:45.424Z,34.33
2022-07-26T09:33:52.466Z,34.75
2022-07-26T09:38:59.123Z,32.57
2022-07-26T09:44:06.840Z,30.33
2022-07-26T09:49:19.836Z,32.30
2022-07-26T09:54:33.598Z,35.00
2022-07-26T09:59:37.647Z,32.31
2022-07-26T10:04:44.491Z,30.58
2022-07-26T10:09:57.344Z,31.31
2022-07-26T10:15:01.411Z,33.49
2022-07-26T10:20:10.649Z,37.29
2022-07-26T10:25:48.798Z,34.03
2022-07-26T10:30:53.400Z,32.92
2022-07-26T10:36:00.505Z,34.77
2022-07-26T10:41:07.936Z,36.37
2022-07-26T10:46:28.318Z,33.61
2022-07-26T10:51:36.500Z,32.32
2022-07-26T10:56:45.324Z,33.99
2022-07-26T11:08:54.651Z,35.13
2022-07-26T11:15:27.764Z,36.49
2022-07-26T11:21:17.424Z,36.93
2022-07-26T11:26:26.407Z,36.21
2022-07-26T11:31:51.534Z,37.05
2022-07-26T11:37:05.343Z,39.22
2022-07-26T11:42:21.343Z,38.94
2022-07-26T11:47:26.701Z,41.18
2022-07-26T11:52:39.942Z,40.91
2022-07-26T11:57:49.263Z,39.60
2022-07-26T12:02:56.060Z,38.91
2022-07-26T12:08:04.274Z,41.54
2022-07-26T12:13:12.483Z,40.92
2022-07-26T12:18:24.519Z,41.38
2022-07-26T12:23:41.080Z,40.81
2022-07-26T12:28:46.548Z,40.16
2022-07-26T12:33:51.070Z,42.59
2022-07-26T12:38:56.063Z,41.64
2022-07-26T12:44:01.523Z,42.33
2022-07-26T12:49:15.636Z,43.16
2022-07-26T12:54:20.468Z,40.42
2022-07-26T12:59:42.290Z,39.93
2022-07-26T13:04:56.874Z,39.84
2022-07-26T13:10:32.023Z,41.01
2022-07-26T13:15:35.980Z,40.85
2022-07-26T13:26:01.831Z,41.81
2022-07-26T13:27:15.347Z,42.06
2022-07-26T13:32:27.071Z,43.60
2022-07-26T13:38:28.491Z,42.18
2022-07-26T13:44:00.965Z,43.15
2022-07-26T13:49:44.624Z,43.00
2022-07-26T13:55:00.068Z,41.56
2022-07-26T14:00:08.033Z,42.35
2022-07-26T14:05:55.900Z,42.05
2022-07-26T14:11:52.553Z,41.75
2022-07-26T14:16:57.132Z,41.56
2022-07-26T14:22:19.732Z,42.49
2022-07-26T14:27:24.891Z,42.30
2022-07-26T14:32:29.411Z,40.89
2022-07-26T14:38:04.772Z,40.73
2022-07-26T14:43:09.600Z,40.83
2022-07-26T14:56:50.828Z,40.83
2022-07-26T15:02:06.991Z,40.54
2022-07-26T15:07:19.176Z,42.30
2022-07-26T15:12:25.109Z,41.31
2022-07-26T15:17:30.146Z,41.73
2022-07-26T15:22:35.232Z,40.89
2022-07-26T15:27:41.139Z,41.31
2022-07-26T15:32:45.851Z,40.45
2022-07-26T15:37:52.038Z,40.91
2022-07-26T15:42:58.361Z,41.58
2022-07-26T15:48:17.100Z,40.81
2022-07-26T15:53:46.451Z,40.23
2022-07-26T15:58:57.283Z,40.83
2022-07-26T16:04:11.913Z,41.17
2022-07-26T16:09:19.719Z,39.22
2022-07-26T16:14:26.343Z,39.98
2022-07-26T16:19:31.135Z,42.30
2022-07-26T16:24:41.327Z,42.59
2022-07-26T16:29:57.757Z,42.98
2022-07-26T16:35:01.969Z,41.58
2022-07-26T16:40:08.282Z,41.14
2022-07-26T16:45:13.953Z,43.11
2022-07-26T16:50:27.757Z,43.02
2022-07-26T16:55:36.351Z,41.87
2022-07-26T17:00:54.516Z,40.59
2022-07-26T17:06:06.437Z,39.36
2022-07-26T17:11:11.580Z,40.09
2022-07-26T17:16:21.365Z,37.70
2022-07-26T17:21:29.039Z,33.44
2022-07-26T17:26:33.438Z,31.33
2022-07-26T17:31:42.934Z,29.87
2022-07-26T17:36:46.972Z,29.04
2022-07-26T17:41:51.415Z,28.22
2022-07-26T17:46:58.624Z,27.61
2022-07-26T17:52:02.864Z,27.26
2022-07-26T17:57:08.409Z,27.08
2022-07-26T18:02:14.217Z,26.95
2022-07-26T18:07:19.484Z,26.97
2022-07-26T18:12:23.512Z,26.68
2022-07-26T18:17:29.084Z,26.61
2022-07-26T18:22:33.583Z,26.62
2022-07-26T18:27:37.751Z,26.30
2022-07-26T18:32:43.160Z,26.17
2022-07-26T18:37:47.561Z,25.98
2022-07-26T18:42:51.603Z,25.82
2022-07-26T18:47:57.116Z,25.39
2022-07-26T18:53:04.025Z,25.14
2022-07-26T18:58:08.599Z,24.94
2022-07-26T19:03:15.095Z,24.82
2022-07-26T19:08:19.037Z,24.42
2022-07-26T19:13:25.951Z,24.22
2022-07-26T19:18:31.508Z,23.87
2022-07-26T19:23:36.109Z,23.59
2022-07-26T19:28:40.313Z,23.29
2022-07-26T19:33:45.981Z,23.04
2022-07-26T19:38:50.242Z,22.75
2022-07-26T19:43:54.492Z,22.59
2022-07-26T19:49:01.003Z,22.31
2022-07-26T19:54:05.689Z,22.08
2022-07-26T19:59:09.904Z,21.94
2022-07-26T20:04:15.872Z,21.98
2022-07-26T20:09:20.123Z,22.02
2022-07-26T20:14:24.577Z,22.17
2022-07-26T20:19:29.968Z,22.15
2022-07-26T20:24:35.679Z,22.13
2022-07-26T20:29:39.798Z,22.04
2022-07-26T20:34:45.255Z,21.88
2022-07-26T20:39:49.375Z,21.70
2022-07-26T20:44:53.824Z,21.73
2022-07-26T20:50:03.414Z,21.74
2022-07-26T20:55:09.126Z,21.63
2022-07-26T21:00:15.028Z,21.47
2022-07-26T21:05:22.365Z,21.31
2022-07-26T21:10:30.231Z,21.14
2022-07-26T21:15:46.518Z,21.08
2022-07-26T21:20:53.218Z,21.07
2022-07-26T21:26:00.330Z,20.99
2022-07-26T21:31:05.258Z,21.07
2022-07-26T21:36:10.748Z,21.11
2022-07-26T21:41:15.913Z,21.08
2022-07-26T21:46:20.190Z,20.97
2022-07-26T21:51:25.694Z,20.68
2022-07-26T21:56:29.892Z,20.44
2022-07-26T22:01:34.165Z,20.23
2022-07-26T22:06:41.308Z,20.20
2022-07-26T22:11:45.743Z,20.07
2022-07-26T22:16:49.850Z,19.95
2022-07-26T22:21:55.301Z,19.86
2022-07-26T22:27:54.686Z,19.71
2022-07-26T22:33:11.900Z,19.63
2022-07-26T22:38:17.231Z,19.63
2022-07-26T22:43:21.465Z,19.61
2022-07-26T22:48:25.399Z,19.66
2022-07-26T22:53:30.970Z,19.74
2022-07-26T23:04:37.303Z,19.82
2022-07-26T23:09:43.191Z,19.88
2022-07-26T23:14:47.004Z,19.86
2022-07-26T23:19:51.395Z,19.84
2022-07-26T23:24:56.893Z,19.83
2022-07-26T23:30:00.969Z,19.74
2022-07-26T23:35:05.634Z,19.63
2022-07-26T23:40:12.841Z,19.52
2022-07-26T23:45:16.904Z,19.47
2022-07-26T23:50:24.609Z,19.53
2022-07-26T23:55:35.607Z,19.59
